sensor_id;sensor_type;location;lat;lon;timestamp;P1;durP1;ratioP1;P2;durP2;ratioP2
15958;SDS011;8078;47.822;9.402;2024-02-26T00:01:39;1.53;;;1.43;;
15958;SDS011;8078;47.822;9.402;2024-02-26T00:04:05;1.20;;;1.20;;
15958;SDS011;8078;47.822;9.402;2024-02-26T00:06:30;1.83;;;1.67;;
15958;SDS011;8078;47.822;9.402;2024-02-26T00:08:56;1.60;;;1.30;;
15958;SDS011;8078;47.822;9.402;2024-02-26T00:11:22;1.63;;;1.50;;
15958;SDS011;8078;47.822;9.402;2024-02-26T00:13:47;1.40;;;1.40;;
15958;SDS011;8078;47.822;9.402;2024-02-26T00:16:13;1.50;;;1.40;;
15958;SDS011;8078;47.822;9.402;2024-02-26T00:18:39;2.37;;;1.57;;
15958;SDS011;8078;47.822;9.402;2024-02-26T00:21:04;1.60;;;1.50;;
15958;SDS011;8078;47.822;9.402;2024-02-26T00:23:30;1.40;;;1.30;;
15958;SDS011;8078;47.822;9.402;2024-02-26T00:25:55;1.60;;;1.50;;
15958;SDS011;8078;47.822;9.402;2024-02-26T00:28:21;1.50;;;1.40;;
15958;SDS011;8078;47.822;9.402;2024-02-26T00:30:47;1.37;;;1.23;;
15958;SDS011;8078;47.822;9.402;2024-02-26T00:33:13;1.40;;;1.30;;
15958;SDS011;8078;47.822;9.402;2024-02-26T00:35:41;1.40;;;1.30;;
15958;SDS011;8078;47.822;9.402;2024-02-26T00:38:07;1.40;;;1.30;;
15958;SDS011;8078;47.822;9.402;2024-02-26T00:40:32;1.30;;;1.20;;
15958;SDS011;8078;47.822;9.402;2024-02-26T00:42:58;1.23;;;1.10;;
15958;SDS011;8078;47.822;9.402;2024-02-26T00:45:24;1.03;;;1.03;;
15958;SDS011;8078;47.822;9.402;2024-02-26T00:47:49;1.30;;;1.20;;
15958;SDS011;8078;47.822;9.402;2024-02-26T00:50:15;1.50;;;1.40;;
15958;SDS011;8078;47.822;9.402;2024-02-26T00:52:40;1.43;;;1.33;;
15958;SDS011;8078;47.822;9.402;2024-02-26T00:55:06;1.20;;;1.20;;
15958;SDS011;8078;47.822;9.402;2024-02-26T00:57:32;1.30;;;1.20;;
15958;SDS011;8078;47.822;9.402;2024-02-26T00:59:58;1.20;;;1.20;;
15958;SDS011;8078;47.822;9.402;2024-02-26T01:02:24;1.17;;;1.10;;
15958;SDS011;8078;47.822;9.402;2024-02-26T01:04:50;1.10;;;1.10;;
15958;SDS011;8078;47.822;9.402;2024-02-26T01:07:15;1.37;;;1.27;;
15958;SDS011;8078;47.822;9.402;2024-02-26T01:09:42;1.50;;;1.40;;
15958;SDS011;8078;47.822;9.402;2024-02-26T01:12:08;1.40;;;1.30;;
15958;SDS011;8078;47.822;9.402;2024-02-26T01:14:33;1.30;;;1.20;;
15958;SDS011;8078;47.822;9.402;2024-02-26T01:17:00;1.40;;;1.30;;
15958;SDS011;8078;47.822;9.402;2024-02-26T01:19:25;1.30;;;1.20;;
15958;SDS011;8078;47.822;9.402;2024-02-26T01:21:53;1.07;;;1.07;;
15958;SDS011;8078;47.822;9.402;2024-02-26T01:24:18;1.30;;;1.17;;
15958;SDS011;8078;47.822;9.402;2024-02-26T01:26:44;1.23;;;1.13;;
15958;SDS011;8078;47.822;9.402;2024-02-26T01:29:09;1.13;;;1.10;;
15958;SDS011;8078;47.822;9.402;2024-02-26T01:31:36;1.37;;;1.20;;
15958;SDS011;8078;47.822;9.402;2024-02-26T01:34:01;1.30;;;1.20;;
15958;SDS011;8078;47.822;9.402;2024-02-26T01:36:27;1.43;;;1.33;;
15958;SDS011;8078;47.822;9.402;2024-02-26T01:38:52;1.10;;;0.97;;
15958;SDS011;8078;47.822;9.402;2024-02-26T01:41:18;1.57;;;0.90;;
15958;SDS011;8078;47.822;9.402;2024-02-26T01:43:44;1.40;;;1.30;;
15958;SDS011;8078;47.822;9.402;2024-02-26T01:46:11;1.10;;;1.00;;
15958;SDS011;8078;47.822;9.402;2024-02-26T01:48:42;1.00;;;1.00;;
15958;SDS011;8078;47.822;9.402;2024-02-26T01:51:10;1.03;;;1.00;;
15958;SDS011;8078;47.822;9.402;2024-02-26T01:53:37;1.10;;;1.10;;
15958;SDS011;8078;47.822;9.402;2024-02-26T01:56:03;1.00;;;1.00;;
15958;SDS011;8078;47.822;9.402;2024-02-26T01:58:30;1.00;;;1.00;;
15958;SDS011;8078;47.822;9.402;2024-02-26T02:00:57;1.00;;;1.00;;
15958;SDS011;8078;47.822;9.402;2024-02-26T02:03:23;1.10;;;1.10;;
15958;SDS011;8078;47.822;9.402;2024-02-26T02:05:49;1.20;;;1.10;;
15958;SDS011;8078;47.822;9.402;2024-02-26T02:08:15;0.93;;;0.93;;
15958;SDS011;8078;47.822;9.402;2024-02-26T02:10:42;1.20;;;1.10;;
15958;SDS011;8078;47.822;9.402;2024-02-26T02:13:07;1.07;;;1.07;;
15958;SDS011;8078;47.822;9.402;2024-02-26T02:15:34;2.97;;;0.90;;
15958;SDS011;8078;47.822;9.402;2024-02-26T02:17:59;1.17;;;1.00;;
15958;SDS011;8078;47.822;9.402;2024-02-26T02:20:26;1.00;;;1.00;;
15958;SDS011;8078;47.822;9.402;2024-02-26T02:22:58;0.90;;;0.90;;
15958;SDS011;8078;47.822;9.402;2024-02-26T02:25:23;1.00;;;1.00;;
15958;SDS011;8078;47.822;9.402;2024-02-26T02:27:49;0.90;;;0.90;;
15958;SDS011;8078;47.822;9.402;2024-02-26T02:30:16;1.00;;;1.00;;
15958;SDS011;8078;47.822;9.402;2024-02-26T02:32:42;0.93;;;0.93;;
15958;SDS011;8078;47.822;9.402;2024-02-26T02:35:08;1.43;;;1.00;;
15958;SDS011;8078;47.822;9.402;2024-02-26T02:37:34;1.00;;;0.90;;
15958;SDS011;8078;47.822;9.402;2024-02-26T02:40:01;1.00;;;1.00;;
15958;SDS011;8078;47.822;9.402;2024-02-26T02:42:27;0.80;;;0.80;;
15958;SDS011;8078;47.822;9.402;2024-02-26T02:44:52;0.97;;;0.97;;
15958;SDS011;8078;47.822;9.402;2024-02-26T02:47:18;1.37;;;0.90;;
15958;SDS011;8078;47.822;9.402;2024-02-26T02:49:43;1.10;;;1.10;;
15958;SDS011;8078;47.822;9.402;2024-02-26T02:52:09;1.33;;;1.30;;
15958;SDS011;8078;47.822;9.402;2024-02-26T02:54:34;1.10;;;1.03;;
15958;SDS011;8078;47.822;9.402;2024-02-26T02:57:02;1.10;;;1.10;;
15958;SDS011;8078;47.822;9.402;2024-02-26T02:59:28;1.17;;;1.17;;
15958;SDS011;8078;47.822;9.402;2024-02-26T03:01:54;1.20;;;1.20;;
15958;SDS011;8078;47.822;9.402;2024-02-26T03:04:19;1.10;;;1.10;;
15958;SDS011;8078;47.822;9.402;2024-02-26T03:06:45;1.13;;;1.03;;
15958;SDS011;8078;47.822;9.402;2024-02-26T03:09:10;0.90;;;0.90;;
15958;SDS011;8078;47.822;9.402;2024-02-26T03:11:36;0.83;;;0.83;;
15958;SDS011;8078;47.822;9.402;2024-02-26T03:14:01;2.20;;;2.10;;
15958;SDS011;8078;47.822;9.402;2024-02-26T03:16:27;2.83;;;2.60;;
15958;SDS011;8078;47.822;9.402;2024-02-26T03:18:53;2.13;;;1.97;;
15958;SDS011;8078;47.822;9.402;2024-02-26T03:21:18;1.10;;;1.10;;
15958;SDS011;8078;47.822;9.402;2024-02-26T03:23:44;0.90;;;0.90;;
15958;SDS011;8078;47.822;9.402;2024-02-26T03:26:10;1.07;;;1.07;;
15958;SDS011;8078;47.822;9.402;2024-02-26T03:28:38;1.10;;;1.10;;
15958;SDS011;8078;47.822;9.402;2024-02-26T03:31:04;1.13;;;1.13;;
15958;SDS011;8078;47.822;9.402;2024-02-26T03:33:29;0.90;;;0.90;;
15958;SDS011;8078;47.822;9.402;2024-02-26T03:35:56;1.13;;;1.13;;
15958;SDS011;8078;47.822;9.402;2024-02-26T03:38:22;1.10;;;1.00;;
15958;SDS011;8078;47.822;9.402;2024-02-26T03:40:48;1.40;;;1.40;;
15958;SDS011;8078;47.822;9.402;2024-02-26T03:43:13;1.00;;;1.00;;
15958;SDS011;8078;47.822;9.402;2024-02-26T03:45:39;1.00;;;1.00;;
15958;SDS011;8078;47.822;9.402;2024-02-26T03:48:06;1.30;;;1.20;;
15958;SDS011;8078;47.822;9.402;2024-02-26T03:50:31;3.67;;;1.10;;
15958;SDS011;8078;47.822;9.402;2024-02-26T03:52:57;1.10;;;1.10;;
15958;SDS011;8078;47.822;9.402;2024-02-26T03:55:23;0.70;;;0.70;;
15958;SDS011;8078;47.822;9.402;2024-02-26T03:57:50;1.00;;;1.00;;
15958;SDS011;8078;47.822;9.402;2024-02-26T04:00:16;1.03;;;1.00;;
15958;SDS011;8078;47.822;9.402;2024-02-26T04:02:42;0.77;;;0.77;;
15958;SDS011;8078;47.822;9.402;2024-02-26T04:05:11;1.07;;;0.83;;
15958;SDS011;8078;47.822;9.402;2024-02-26T04:07:37;1.17;;;1.17;;
15958;SDS011;8078;47.822;9.402;2024-02-26T04:10:03;0.97;;;0.90;;
15958;SDS011;8078;47.822;9.402;2024-02-26T04:12:33;1.27;;;0.90;;
15958;SDS011;8078;47.822;9.402;2024-02-26T04:14:58;1.00;;;1.00;;
15958;SDS011;8078;47.822;9.402;2024-02-26T04:17:24;0.77;;;0.77;;
15958;SDS011;8078;47.822;9.402;2024-02-26T04:19:50;0.80;;;0.80;;
15958;SDS011;8078;47.822;9.402;2024-02-26T04:22:15;0.97;;;0.87;;
15958;SDS011;8078;47.822;9.402;2024-02-26T04:24:41;1.33;;;1.00;;
15958;SDS011;8078;47.822;9.402;2024-02-26T04:27:07;1.30;;;1.20;;
15958;SDS011;8078;47.822;9.402;2024-02-26T04:29:32;1.60;;;1.17;;
15958;SDS011;8078;47.822;9.402;2024-02-26T04:31:58;1.10;;;1.00;;
15958;SDS011;8078;47.822;9.402;2024-02-26T04:34:23;1.20;;;1.10;;
15958;SDS011;8078;47.822;9.402;2024-02-26T04:36:49;1.10;;;1.00;;
15958;SDS011;8078;47.822;9.402;2024-02-26T04:39:14;0.90;;;0.90;;
15958;SDS011;8078;47.822;9.402;2024-02-26T04:41:40;1.03;;;1.03;;
15958;SDS011;8078;47.822;9.402;2024-02-26T04:44:05;1.27;;;1.17;;
15958;SDS011;8078;47.822;9.402;2024-02-26T04:46:31;1.33;;;1.23;;
15958;SDS011;8078;47.822;9.402;2024-02-26T04:48:56;1.00;;;1.00;;
15958;SDS011;8078;47.822;9.402;2024-02-26T04:51:23;1.07;;;1.07;;
15958;SDS011;8078;47.822;9.402;2024-02-26T04:53:49;1.30;;;1.20;;
15958;SDS011;8078;47.822;9.402;2024-02-26T04:56:14;1.13;;;1.10;;
15958;SDS011;8078;47.822;9.402;2024-02-26T04:58:40;1.00;;;1.00;;
15958;SDS011;8078;47.822;9.402;2024-02-26T05:01:06;1.30;;;1.20;;
15958;SDS011;8078;47.822;9.402;2024-02-26T05:03:31;2.37;;;1.80;;
15958;SDS011;8078;47.822;9.402;2024-02-26T05:05:57;1.93;;;1.73;;
15958;SDS011;8078;47.822;9.402;2024-02-26T05:08:23;1.67;;;1.57;;
15958;SDS011;8078;47.822;9.402;2024-02-26T05:10:48;1.40;;;1.20;;
15958;SDS011;8078;47.822;9.402;2024-02-26T05:13:14;1.30;;;1.20;;
15958;SDS011;8078;47.822;9.402;2024-02-26T05:15:41;1.43;;;1.30;;
15958;SDS011;8078;47.822;9.402;2024-02-26T05:18:07;1.83;;;1.30;;
15958;SDS011;8078;47.822;9.402;2024-02-26T05:20:33;1.07;;;1.03;;
15958;SDS011;8078;47.822;9.402;2024-02-26T05:23:00;2.20;;;1.40;;
15958;SDS011;8078;47.822;9.402;2024-02-26T05:25:25;2.30;;;1.20;;
15958;SDS011;8078;47.822;9.402;2024-02-26T05:27:51;1.13;;;1.10;;
15958;SDS011;8078;47.822;9.402;2024-02-26T05:30:16;4.20;;;3.20;;
15958;SDS011;8078;47.822;9.402;2024-02-26T05:32:42;1.90;;;1.70;;
15958;SDS011;8078;47.822;9.402;2024-02-26T05:35:08;1.77;;;1.67;;
15958;SDS011;8078;47.822;9.402;2024-02-26T05:37:34;1.50;;;1.40;;
15958;SDS011;8078;47.822;9.402;2024-02-26T05:39:59;1.63;;;1.53;;
15958;SDS011;8078;47.822;9.402;2024-02-26T05:42:25;2.40;;;1.40;;
15958;SDS011;8078;47.822;9.402;2024-02-26T05:44:51;1.70;;;1.60;;
15958;SDS011;8078;47.822;9.402;2024-02-26T05:47:16;1.50;;;1.40;;
15958;SDS011;8078;47.822;9.402;2024-02-26T05:49:43;2.57;;;1.60;;
15958;SDS011;8078;47.822;9.402;2024-02-26T05:52:09;1.87;;;1.77;;
15958;SDS011;8078;47.822;9.402;2024-02-26T05:54:34;1.53;;;1.43;;
15958;SDS011;8078;47.822;9.402;2024-02-26T05:57:00;1.40;;;1.30;;
15958;SDS011;8078;47.822;9.402;2024-02-26T05:59:26;1.40;;;1.30;;
15958;SDS011;8078;47.822;9.402;2024-02-26T06:01:52;1.67;;;1.53;;
15958;SDS011;8078;47.822;9.402;2024-02-26T06:04:18;1.30;;;1.30;;
15958;SDS011;8078;47.822;9.402;2024-02-26T06:06:44;1.13;;;1.13;;
15958;SDS011;8078;47.822;9.402;2024-02-26T06:09:10;1.37;;;1.27;;
15958;SDS011;8078;47.822;9.402;2024-02-26T06:11:36;1.37;;;1.27;;
15958;SDS011;8078;47.822;9.402;2024-02-26T06:14:02;1.10;;;1.10;;
15958;SDS011;8078;47.822;9.402;2024-02-26T06:16:28;1.63;;;1.40;;
15958;SDS011;8078;47.822;9.402;2024-02-26T06:18:53;1.40;;;1.30;;
15958;SDS011;8078;47.822;9.402;2024-02-26T06:21:19;1.60;;;1.50;;
15958;SDS011;8078;47.822;9.402;2024-02-26T06:23:44;1.50;;;1.40;;
15958;SDS011;8078;47.822;9.402;2024-02-26T06:26:10;1.73;;;1.20;;
15958;SDS011;8078;47.822;9.402;2024-02-26T06:28:36;1.10;;;1.10;;
15958;SDS011;8078;47.822;9.402;2024-02-26T06:31:06;1.63;;;1.30;;
15958;SDS011;8078;47.822;9.402;2024-02-26T06:33:31;1.60;;;1.50;;
15958;SDS011;8078;47.822;9.402;2024-02-26T06:35:57;1.30;;;1.30;;
15958;SDS011;8078;47.822;9.402;2024-02-26T06:38:23;2.53;;;1.40;;
15958;SDS011;8078;47.822;9.402;2024-02-26T06:40:48;1.37;;;1.27;;
15958;SDS011;8078;47.822;9.402;2024-02-26T06:43:14;1.40;;;1.30;;
15958;SDS011;8078;47.822;9.402;2024-02-26T06:45:39;1.60;;;1.47;;
15958;SDS011;8078;47.822;9.402;2024-02-26T06:48:06;1.60;;;1.50;;
15958;SDS011;8078;47.822;9.402;2024-02-26T06:50:32;2.23;;;1.67;;
15958;SDS011;8078;47.822;9.402;2024-02-26T06:52:59;1.50;;;1.40;;
15958;SDS011;8078;47.822;9.402;2024-02-26T06:55:25;1.60;;;1.50;;
15958;SDS011;8078;47.822;9.402;2024-02-26T06:57:50;1.50;;;1.40;;
15958;SDS011;8078;47.822;9.402;2024-02-26T07:00:18;2.53;;;1.40;;
15958;SDS011;8078;47.822;9.402;2024-02-26T07:02:44;1.40;;;1.30;;
15958;SDS011;8078;47.822;9.402;2024-02-26T07:05:09;1.40;;;1.30;;
15958;SDS011;8078;47.822;9.402;2024-02-26T07:07:35;1.73;;;1.30;;
15958;SDS011;8078;47.822;9.402;2024-02-26T07:10:01;2.87;;;1.30;;
15958;SDS011;8078;47.822;9.402;2024-02-26T07:12:29;1.43;;;1.20;;
15958;SDS011;8078;47.822;9.402;2024-02-26T07:14:55;1.37;;;1.37;;
15958;SDS011;8078;47.822;9.402;2024-02-26T07:17:21;1.03;;;1.03;;
15958;SDS011;8078;47.822;9.402;2024-02-26T07:19:46;1.10;;;1.00;;
15958;SDS011;8078;47.822;9.402;2024-02-26T07:22:12;1.27;;;1.17;;
15958;SDS011;8078;47.822;9.402;2024-02-26T07:24:38;1.07;;;1.07;;
15958;SDS011;8078;47.822;9.402;2024-02-26T07:27:04;2.30;;;1.87;;
15958;SDS011;8078;47.822;9.402;2024-02-26T07:29:31;2.00;;;1.80;;
15958;SDS011;8078;47.822;9.402;2024-02-26T07:31:58;1.30;;;1.20;;
15958;SDS011;8078;47.822;9.402;2024-02-26T07:34:23;1.30;;;1.20;;
15958;SDS011;8078;47.822;9.402;2024-02-26T07:36:53;1.90;;;1.70;;
15958;SDS011;8078;47.822;9.402;2024-02-26T07:39:21;1.30;;;1.20;;
15958;SDS011;8078;47.822;9.402;2024-02-26T07:41:47;2.03;;;1.27;;
15958;SDS011;8078;47.822;9.402;2024-02-26T07:44:15;1.30;;;1.20;;
15958;SDS011;8078;47.822;9.402;2024-02-26T07:46:40;1.10;;;1.10;;
15958;SDS011;8078;47.822;9.402;2024-02-26T07:49:06;1.38;;;1.27;;
15958;SDS011;8078;47.822;9.402;2024-02-26T07:51:33;2.67;;;1.38;;
15958;SDS011;8078;47.822;9.402;2024-02-26T07:53:58;1.58;;;1.48;;
15958;SDS011;8078;47.822;9.402;2024-02-26T07:56:24;2.13;;;1.33;;
15958;SDS011;8078;47.822;9.402;2024-02-26T07:58:49;1.27;;;1.20;;
15958;SDS011;8078;47.822;9.402;2024-02-26T08:01:15;1.30;;;1.20;;
15958;SDS011;8078;47.822;9.402;2024-02-26T08:03:40;2.03;;;1.50;;
15958;SDS011;8078;47.822;9.402;2024-02-26T08:06:08;1.57;;;1.40;;
15958;SDS011;8078;47.822;9.402;2024-02-26T08:08:33;2.60;;;1.60;;
15958;SDS011;8078;47.822;9.402;2024-02-26T08:10:59;1.60;;;1.47;;
15958;SDS011;8078;47.822;9.402;2024-02-26T08:13:24;2.23;;;1.60;;
15958;SDS011;8078;47.822;9.402;2024-02-26T08:15:51;1.50;;;1.40;;
15958;SDS011;8078;47.822;9.402;2024-02-26T08:18:17;1.60;;;1.50;;
15958;SDS011;8078;47.822;9.402;2024-02-26T08:20:42;1.87;;;1.50;;
15958;SDS011;8078;47.822;9.402;2024-02-26T08:23:08;1.60;;;1.50;;
15958;SDS011;8078;47.822;9.402;2024-02-26T08:25:34;2.60;;;1.87;;
15958;SDS011;8078;47.822;9.402;2024-02-26T08:27:59;2.87;;;1.90;;
15958;SDS011;8078;47.822;9.402;2024-02-26T08:30:25;2.10;;;1.80;;
15958;SDS011;8078;47.822;9.402;2024-02-26T08:32:50;2.10;;;1.70;;
15958;SDS011;8078;47.822;9.402;2024-02-26T08:35:17;2.63;;;1.80;;
15958;SDS011;8078;47.822;9.402;2024-02-26T08:37:46;3.23;;;1.97;;
15958;SDS011;8078;47.822;9.402;2024-02-26T08:40:13;2.20;;;2.00;;
15958;SDS011;8078;47.822;9.402;2024-02-26T08:42:39;2.20;;;1.83;;
15958;SDS011;8078;47.822;9.402;2024-02-26T08:45:05;1.55;;;1.45;;
15958;SDS011;8078;47.822;9.402;2024-02-26T08:47:33;1.45;;;1.35;;
15958;SDS011;8078;47.822;9.402;2024-02-26T08:49:58;7.32;;;1.33;;
15958;SDS011;8078;47.822;9.402;2024-02-26T08:52:24;1.20;;;1.10;;
15958;SDS011;8078;47.822;9.402;2024-02-26T08:54:49;1.20;;;1.10;;
15958;SDS011;8078;47.822;9.402;2024-02-26T08:57:15;1.20;;;1.10;;
15958;SDS011;8078;47.822;9.402;2024-02-26T08:59:41;2.72;;;1.38;;
15958;SDS011;8078;47.822;9.402;2024-02-26T09:02:08;1.30;;;1.20;;
15958;SDS011;8078;47.822;9.402;2024-02-26T09:04:34;1.30;;;1.20;;
15958;SDS011;8078;47.822;9.402;2024-02-26T09:07:03;1.60;;;1.40;;
15958;SDS011;8078;47.822;9.402;2024-02-26T09:09:29;1.60;;;1.50;;
15958;SDS011;8078;47.822;9.402;2024-02-26T09:11:55;1.50;;;1.40;;
15958;SDS011;8078;47.822;9.402;2024-02-26T09:14:21;1.40;;;1.30;;
15958;SDS011;8078;47.822;9.402;2024-02-26T09:16:47;2.83;;;1.40;;
15958;SDS011;8078;47.822;9.402;2024-02-26T09:19:17;1.35;;;1.25;;
15958;SDS011;8078;47.822;9.402;2024-02-26T09:21:43;1.40;;;1.30;;
15958;SDS011;8078;47.822;9.402;2024-02-26T09:24:12;2.25;;;1.00;;
15958;SDS011;8078;47.822;9.402;2024-02-26T09:26:38;1.20;;;1.10;;
15958;SDS011;8078;47.822;9.402;2024-02-26T09:29:03;1.70;;;0.98;;
15958;SDS011;8078;47.822;9.402;2024-02-26T09:31:29;1.40;;;1.30;;
15958;SDS011;8078;47.822;9.402;2024-02-26T09:33:55;2.22;;;1.65;;
15958;SDS011;8078;47.822;9.402;2024-02-26T09:36:21;3.75;;;1.50;;
15958;SDS011;8078;47.822;9.402;2024-02-26T09:38:47;1.38;;;1.27;;
15958;SDS011;8078;47.822;9.402;2024-02-26T09:41:16;1.92;;;1.25;;
15958;SDS011;8078;47.822;9.402;2024-02-26T09:43:43;1.90;;;1.25;;
15958;SDS011;8078;47.822;9.402;2024-02-26T09:46:12;1.63;;;1.00;;
15958;SDS011;8078;47.822;9.402;2024-02-26T09:48:40;1.58;;;1.45;;
15958;SDS011;8078;47.822;9.402;2024-02-26T09:51:08;1.90;;;1.58;;
15958;SDS011;8078;47.822;9.402;2024-02-26T09:53:36;1.38;;;1.27;;
15958;SDS011;8078;47.822;9.402;2024-02-26T09:56:06;1.67;;;1.55;;
15958;SDS011;8078;47.822;9.402;2024-02-26T09:58:32;1.63;;;1.50;;
15958;SDS011;8078;47.822;9.402;2024-02-26T10:00:59;2.03;;;1.85;;
15958;SDS011;8078;47.822;9.402;2024-02-26T10:03:41;2.25;;;1.50;;
15958;SDS011;8078;47.822;9.402;2024-02-26T10:06:07;1.90;;;1.70;;
15958;SDS011;8078;47.822;9.402;2024-02-26T10:08:34;1.50;;;1.40;;
15958;SDS011;8078;47.822;9.402;2024-02-26T10:11:02;1.63;;;1.52;;
15958;SDS011;8078;47.822;9.402;2024-02-26T10:13:29;3.72;;;1.70;;
15958;SDS011;8078;47.822;9.402;2024-02-26T10:15:54;1.77;;;1.67;;
15958;SDS011;8078;47.822;9.402;2024-02-26T10:18:20;1.67;;;1.58;;
15958;SDS011;8078;47.822;9.402;2024-02-26T10:21:06;2.40;;;2.20;;
15958;SDS011;8078;47.822;9.402;2024-02-26T10:23:32;6.93;;;4.07;;
15958;SDS011;8078;47.822;9.402;2024-02-26T10:25:58;5.90;;;4.50;;
15958;SDS011;8078;47.822;9.402;2024-02-26T10:28:24;8.68;;;5.30;;
15958;SDS011;8078;47.822;9.402;2024-02-26T10:30:51;8.07;;;5.32;;
15958;SDS011;8078;47.822;9.402;2024-02-26T10:33:17;12.13;;;6.28;;
15958;SDS011;8078;47.822;9.402;2024-02-26T10:35:45;12.27;;;7.35;;
15958;SDS011;8078;47.822;9.402;2024-02-26T10:38:12;11.18;;;7.47;;
15958;SDS011;8078;47.822;9.402;2024-02-26T10:40:38;11.73;;;5.45;;
15958;SDS011;8078;47.822;9.402;2024-02-26T10:43:03;10.07;;;6.28;;
15958;SDS011;8078;47.822;9.402;2024-02-26T10:45:29;7.25;;;4.78;;
15958;SDS011;8078;47.822;9.402;2024-02-26T10:47:54;7.78;;;5.05;;
15958;SDS011;8078;47.822;9.402;2024-02-26T10:50:20;8.18;;;4.03;;
15958;SDS011;8078;47.822;9.402;2024-02-26T10:52:47;4.22;;;3.53;;
15958;SDS011;8078;47.822;9.402;2024-02-26T10:55:16;3.45;;;2.58;;
15958;SDS011;8078;47.822;9.402;2024-02-26T10:57:45;4.05;;;3.00;;
15958;SDS011;8078;47.822;9.402;2024-02-26T11:00:15;4.15;;;3.13;;
15958;SDS011;8078;47.822;9.402;2024-02-26T11:02:41;4.00;;;2.70;;
15958;SDS011;8078;47.822;9.402;2024-02-26T11:05:09;3.07;;;2.30;;
15958;SDS011;8078;47.822;9.402;2024-02-26T11:07:37;2.22;;;1.90;;
15958;SDS011;8078;47.822;9.402;2024-02-26T11:10:03;2.10;;;1.90;;
15958;SDS011;8078;47.822;9.402;2024-02-26T11:12:31;2.23;;;1.80;;
15958;SDS011;8078;47.822;9.402;2024-02-26T11:14:59;4.93;;;2.03;;
15958;SDS011;8078;47.822;9.402;2024-02-26T11:17:27;2.60;;;2.37;;
15958;SDS011;8078;47.822;9.402;2024-02-26T11:19:56;2.00;;;1.80;;
15958;SDS011;8078;47.822;9.402;2024-02-26T11:22:28;2.47;;;2.28;;
15958;SDS011;8078;47.822;9.402;2024-02-26T11:24:54;3.30;;;2.10;;
15958;SDS011;8078;47.822;9.402;2024-02-26T11:27:30;2.30;;;1.80;;
15958;SDS011;8078;47.822;9.402;2024-02-26T11:29:59;2.88;;;2.30;;
15958;SDS011;8078;47.822;9.402;2024-02-26T11:32:27;5.22;;;2.65;;
15958;SDS011;8078;47.822;9.402;2024-02-26T11:34:55;4.07;;;3.20;;
15958;SDS011;8078;47.822;9.402;2024-02-26T11:37:22;4.30;;;3.10;;
15958;SDS011;8078;47.822;9.402;2024-02-26T11:39:48;3.78;;;3.38;;
15958;SDS011;8078;47.822;9.402;2024-02-26T11:42:16;3.97;;;3.08;;
15958;SDS011;8078;47.822;9.402;2024-02-26T11:44:43;4.23;;;3.40;;
15958;SDS011;8078;47.822;9.402;2024-02-26T11:47:18;5.30;;;3.00;;
15958;SDS011;8078;47.822;9.402;2024-02-26T11:49:45;3.27;;;2.90;;
15958;SDS011;8078;47.822;9.402;2024-02-26T11:52:12;3.42;;;2.55;;
15958;SDS011;8078;47.822;9.402;2024-02-26T11:54:54;2.47;;;2.10;;
15958;SDS011;8078;47.822;9.402;2024-02-26T11:57:25;2.53;;;2.13;;
15958;SDS011;8078;47.822;9.402;2024-02-26T11:59:53;4.30;;;2.10;;
15958;SDS011;8078;47.822;9.402;2024-02-26T12:02:38;1.70;;;1.60;;
15958;SDS011;8078;47.822;9.402;2024-02-26T12:05:18;3.33;;;2.33;;
15958;SDS011;8078;47.822;9.402;2024-02-26T12:10:15;3.77;;;2.07;;
15958;SDS011;8078;47.822;9.402;2024-02-26T12:13:06;1.77;;;1.67;;
15958;SDS011;8078;47.822;9.402;2024-02-26T12:15:39;1.67;;;1.57;;
15958;SDS011;8078;47.822;9.402;2024-02-26T12:18:08;4.00;;;1.53;;
15958;SDS011;8078;47.822;9.402;2024-02-26T12:20:35;1.87;;;1.60;;
15958;SDS011;8078;47.822;9.402;2024-02-26T12:23:01;1.83;;;1.60;;
15958;SDS011;8078;47.822;9.402;2024-02-26T12:25:29;1.77;;;1.60;;
15958;SDS011;8078;47.822;9.402;2024-02-26T12:27:56;1.40;;;1.30;;
15958;SDS011;8078;47.822;9.402;2024-02-26T12:30:22;3.73;;;1.53;;
15958;SDS011;8078;47.822;9.402;2024-02-26T12:32:49;3.70;;;1.80;;
15958;SDS011;8078;47.822;9.402;2024-02-26T12:35:15;1.97;;;1.83;;
15958;SDS011;8078;47.822;9.402;2024-02-26T12:37:42;1.55;;;1.45;;
15958;SDS011;8078;47.822;9.402;2024-02-26T12:40:11;1.67;;;1.50;;
15958;SDS011;8078;47.822;9.402;2024-02-26T12:42:38;1.60;;;1.50;;
15958;SDS011;8078;47.822;9.402;2024-02-26T12:45:11;1.80;;;1.70;;
15958;SDS011;8078;47.822;9.402;2024-02-26T12:47:38;1.60;;;1.50;;
15958;SDS011;8078;47.822;9.402;2024-02-26T12:50:05;2.23;;;1.80;;
15958;SDS011;8078;47.822;9.402;2024-02-26T12:52:32;1.70;;;1.50;;
15958;SDS011;8078;47.822;9.402;2024-02-26T12:54:59;3.80;;;1.70;;
15958;SDS011;8078;47.822;9.402;2024-02-26T12:57:27;1.87;;;1.57;;
15958;SDS011;8078;47.822;9.402;2024-02-26T12:59:55;3.78;;;1.92;;
15958;SDS011;8078;47.822;9.402;2024-02-26T13:02:21;1.80;;;1.70;;
15958;SDS011;8078;47.822;9.402;2024-02-26T13:04:47;2.75;;;2.00;;
15958;SDS011;8078;47.822;9.402;2024-02-26T13:07:12;3.45;;;2.13;;
15958;SDS011;8078;47.822;9.402;2024-02-26T13:09:38;2.05;;;1.77;;
15958;SDS011;8078;47.822;9.402;2024-02-26T13:12:05;3.10;;;2.13;;
15958;SDS011;8078;47.822;9.402;2024-02-26T13:14:32;4.55;;;2.33;;
15958;SDS011;8078;47.822;9.402;2024-02-26T13:16:59;3.33;;;2.20;;
15958;SDS011;8078;47.822;9.402;2024-02-26T13:19:25;3.00;;;2.58;;
15958;SDS011;8078;47.822;9.402;2024-02-26T13:21:51;2.72;;;2.45;;
15958;SDS011;8078;47.822;9.402;2024-02-26T13:24:17;3.88;;;3.05;;
15958;SDS011;8078;47.822;9.402;2024-02-26T13:26:45;3.42;;;2.72;;
15958;SDS011;8078;47.822;9.402;2024-02-26T13:29:18;2.58;;;2.38;;
15958;SDS011;8078;47.822;9.402;2024-02-26T13:31:43;3.38;;;2.05;;
15958;SDS011;8078;47.822;9.402;2024-02-26T13:34:09;2.70;;;2.50;;
15958;SDS011;8078;47.822;9.402;2024-02-26T13:36:34;2.72;;;2.03;;
15958;SDS011;8078;47.822;9.402;2024-02-26T13:39:00;2.65;;;2.28;;
15958;SDS011;8078;47.822;9.402;2024-02-26T13:41:28;3.08;;;2.50;;
15958;SDS011;8078;47.822;9.402;2024-02-26T13:43:53;3.45;;;2.55;;
15958;SDS011;8078;47.822;9.402;2024-02-26T13:46:19;2.88;;;2.30;;
15958;SDS011;8078;47.822;9.402;2024-02-26T13:48:44;4.38;;;2.58;;
15958;SDS011;8078;47.822;9.402;2024-02-26T13:51:10;2.33;;;2.13;;
15958;SDS011;8078;47.822;9.402;2024-02-26T13:53:35;3.03;;;2.42;;
15958;SDS011;8078;47.822;9.402;2024-02-26T13:56:01;4.90;;;2.35;;
15958;SDS011;8078;47.822;9.402;2024-02-26T13:58:30;5.45;;;2.33;;
15958;SDS011;8078;47.822;9.402;2024-02-26T14:00:56;3.83;;;2.50;;
15958;SDS011;8078;47.822;9.402;2024-02-26T14:03:21;2.90;;;2.20;;
15958;SDS011;8078;47.822;9.402;2024-02-26T14:05:47;2.40;;;2.20;;
15958;SDS011;8078;47.822;9.402;2024-02-26T14:08:13;2.50;;;2.30;;
15958;SDS011;8078;47.822;9.402;2024-02-26T14:10:39;4.30;;;2.58;;
15958;SDS011;8078;47.822;9.402;2024-02-26T14:13:05;3.03;;;2.20;;
15958;SDS011;8078;47.822;9.402;2024-02-26T14:15:30;4.35;;;2.45;;
15958;SDS011;8078;47.822;9.402;2024-02-26T14:17:57;2.20;;;1.90;;
15958;SDS011;8078;47.822;9.402;2024-02-26T14:20:23;2.38;;;2.00;;
15958;SDS011;8078;47.822;9.402;2024-02-26T14:22:50;2.92;;;2.10;;
15958;SDS011;8078;47.822;9.402;2024-02-26T14:25:18;2.75;;;2.15;;
15958;SDS011;8078;47.822;9.402;2024-02-26T14:27:44;3.97;;;2.42;;
15958;SDS011;8078;47.822;9.402;2024-02-26T14:30:11;2.25;;;2.00;;
15958;SDS011;8078;47.822;9.402;2024-02-26T14:32:37;3.63;;;2.20;;
15958;SDS011;8078;47.822;9.402;2024-02-26T14:35:09;8.25;;;3.60;;
15958;SDS011;8078;47.822;9.402;2024-02-26T14:37:35;2.70;;;2.28;;
15958;SDS011;8078;47.822;9.402;2024-02-26T14:40:01;3.28;;;2.38;;
15958;SDS011;8078;47.822;9.402;2024-02-26T14:42:28;2.88;;;2.03;;
15958;SDS011;8078;47.822;9.402;2024-02-26T14:44:54;4.67;;;2.20;;
15958;SDS011;8078;47.822;9.402;2024-02-26T14:47:19;2.10;;;1.90;;
15958;SDS011;8078;47.822;9.402;2024-02-26T14:49:45;2.67;;;2.20;;
15958;SDS011;8078;47.822;9.402;2024-02-26T14:52:13;3.53;;;2.37;;
15958;SDS011;8078;47.822;9.402;2024-02-26T14:54:41;3.07;;;2.23;;
15958;SDS011;8078;47.822;9.402;2024-02-26T14:57:07;2.50;;;2.30;;
15958;SDS011;8078;47.822;9.402;2024-02-26T14:59:34;2.27;;;1.90;;